Time,TemperatureF,DewpointF,PressureIn,WindDirection,WindDirectionDegrees,WindSpeedMPH,WindSpeedGustMPH,Humidity,HourlyPrecipIn,Conditions,Clouds,dailyrainin,SolarRadiationWatts/m^2,SoftwareType,DateUTC
2013-01-18 00:04:00,16.0,13.0,-100.00,NNE,32,6.0,12.0,86,0.00,,,0.00,0.000000,,2013-01-18 05:04:00,
2013-01-18 00:12:00,16.0,13.0,-100.00,NNE,32,6.0,12.0,86,0.00,,,0.00,0.000000,,2013-01-18 05:12:00,
2013-01-18 00:22:00,16.0,13.0,-100.00,NNE,32,6.0,12.0,86,0.00,,,0.00,0.000000,,2013-01-18 05:22:00,
2013-01-18 00:53:00,14.0,10.0,-100.00,NE,49,4.0,13.0,84,0.00,,,0.00,0.000000,,2013-01-18 05:53:00,
2013-01-18 01:02:00,14.0,10.0,-100.00,NE,49,4.0,13.0,84,0.00,,,0.00,0.000000,,2013-01-18 06:02:00,
2013-01-18 01:12:00,14.0,10.0,-100.00,NE,49,4.0,13.0,84,0.00,,,0.00,0.000000,,2013-01-18 06:12:00,
2013-01-18 01:22:00,14.0,10.0,-100.00,NE,49,4.0,13.0,84,0.00,,,0.00,0.000000,,2013-01-18 06:22:00,
2013-01-18 01:53:00,15.0,11.0,-100.00,NNE,28,2.0,4.0,85,0.00,,,0.00,0.000000,,2013-01-18 06:53:00,
2013-01-18 02:02:00,15.0,11.0,-100.00,NNE,28,2.0,4.0,85,0.00,,,0.00,0.000000,,2013-01-18 07:02:00,
2013-01-18 02:12:00,15.0,11.0,-100.00,NNE,28,2.0,4.0,85,0.00,,,0.00,0.000000,,2013-01-18 07:12:00,
2013-01-18 02:22:00,15.0,11.0,-100.00,NNE,28,2.0,4.0,85,0.00,,,0.00,0.000000,,2013-01-18 07:22:00,
2013-01-18 02:52:00,15.0,12.0,-100.00,West,264,0.0,4.0,86,0.00,,,0.00,0.000000,,2013-01-18 07:52:00,
2013-01-18 03:02:00,15.0,12.0,-100.00,West,264,0.0,4.0,86,0.00,,,0.00,0.000000,,2013-01-18 08:02:00,
2013-01-18 03:12:00,15.0,12.0,-100.00,West,264,0.0,4.0,86,0.00,,,0.00,0.000000,,2013-01-18 08:12:00,
2013-01-18 03:22:00,15.0,12.0,-100.00,West,264,0.0,4.0,86,0.00,,,0.00,0.000000,,2013-01-18 08:22:00,
2013-01-18 03:53:00,15.0,12.0,-100.00,WNW,282,3.0,4.0,87,0.00,,,0.00,0.000000,,2013-01-18 08:53:00,
2013-01-18 04:03:00,15.0,12.0,-100.00,WNW,282,3.0,4.0,87,0.00,,,0.00,0.000000,,2013-01-18 09:03:00,
2013-01-18 04:12:00,15.0,12.0,-100.00,WNW,282,3.0,4.0,87,0.00,,,0.00,0.000000,,2013-01-18 09:12:00,
2013-01-18 04:22:00,15.0,12.0,-100.00,WNW,282,3.0,4.0,87,0.00,,,0.00,0.000000,,2013-01-18 09:22:00,
2013-01-18 04:53:00,15.0,12.0,-100.00,SW,225,3.0,8.0,87,0.00,,,0.00,0.000000,,2013-01-18 09:53:00,
2013-01-18 05:03:00,15.0,12.0,-100.00,SW,225,3.0,8.0,87,0.00,,,0.00,0.000000,,2013-01-18 10:03:00,
2013-01-18 05:12:00,15.0,12.0,-100.00,SW,225,3.0,8.0,87,0.00,,,0.00,0.000000,,2013-01-18 10:12:00,
2013-01-18 05:22:00,15.0,12.0,-100.00,SW,225,3.0,8.0,87,0.00,,,0.00,0.000000,,2013-01-18 10:22:00,
2013-01-18 05:53:00,15.0,12.0,-100.00,SW,233,4.0,6.0,87,0.00,,,0.00,0.000000,,2013-01-18 10:53:00,
2013-01-18 06:03:00,15.0,12.0,-100.00,SW,233,4.0,6.0,87,0.00,,,0.00,0.000000,,2013-01-18 11:03:00,
2013-01-18 06:12:00,15.0,12.0,-100.00,SW,233,4.0,6.0,87,0.00,,,0.00,0.000000,,2013-01-18 11:12:00,
2013-01-18 06:23:00,15.0,12.0,-100.00,SW,233,4.0,6.0,87,0.00,,,0.00,0.000000,,2013-01-18 11:23:00,
2013-01-18 06:53:00,15.0,12.0,-100.00,WSW,243,6.0,11.0,86,0.00,,,0.00,0.000000,,2013-01-18 11:53:00,
2013-01-18 07:03:00,15.0,12.0,-100.00,WSW,243,6.0,11.0,86,0.00,,,0.00,0.000000,,2013-01-18 12:03:00,
2013-01-18 07:12:00,15.0,12.0,-100.00,WSW,243,6.0,11.0,86,0.00,,,0.00,0.000000,,2013-01-18 12:12:00,
2013-01-18 07:23:00,15.0,12.0,-100.00,WSW,243,6.0,11.0,86,0.00,,,0.00,0.000000,,2013-01-18 12:23:00,
2013-01-18 07:53:00,15.0,11.0,-100.00,West,266,8.0,13.0,85,0.00,,,0.00,0.000000,,2013-01-18 12:53:00,
2013-01-18 08:03:00,15.0,11.0,-100.00,West,266,8.0,13.0,85,0.00,,,0.00,0.000000,,2013-01-18 13:03:00,
2013-01-18 08:12:00,15.0,11.0,-100.00,West,266,8.0,13.0,85,0.00,,,0.00,0.000000,,2013-01-18 13:12:00,
2013-01-18 08:23:00,15.0,11.0,-100.00,West,266,8.0,13.0,85,0.00,,,0.00,0.000000,,2013-01-18 13:23:00,
2013-01-18 08:53:00,15.0,11.0,-100.00,West,262,7.0,15.0,82,0.00,,,0.00,7.000000,,2013-01-18 13:53:00,
2013-01-18 09:03:00,15.0,11.0,-100.00,West,262,7.0,15.0,82,0.00,,,0.00,7.000000,,2013-01-18 14:03:00,
2013-01-18 09:13:00,15.0,11.0,-100.00,West,262,7.0,15.0,82,0.00,,,0.00,7.000000,,2013-01-18 14:13:00,
2013-01-18 09:23:00,15.0,11.0,-100.00,West,262,7.0,15.0,82,0.00,,,0.00,7.000000,,2013-01-18 14:23:00,
2013-01-18 09:53:00,17.0,8.0,-100.00,West,259,7.0,14.0,66,0.00,,,0.00,44.000000,,2013-01-18 14:53:00,
2013-01-18 10:03:00,17.0,8.0,-100.00,West,259,7.0,14.0,66,0.00,,,0.00,44.000000,,2013-01-18 15:03:00,
2013-01-18 10:13:00,17.0,8.0,-100.00,West,259,7.0,14.0,66,0.00,,,0.00,44.000000,,2013-01-18 15:13:00,
2013-01-18 10:23:00,17.0,8.0,-100.00,West,259,7.0,14.0,66,0.00,,,0.00,44.000000,,2013-01-18 15:23:00,
2013-01-18 10:54:00,19.0,7.0,-100.00,West,269,8.0,16.0,58,0.00,,,0.00,211.000000,,2013-01-18 15:54:00,
2013-01-18 11:03:00,19.0,7.0,-100.00,West,269,8.0,16.0,58,0.00,,,0.00,211.000000,,2013-01-18 16:03:00,
2013-01-18 11:13:00,19.0,7.0,-100.00,West,269,8.0,16.0,58,0.00,,,0.00,211.000000,,2013-01-18 16:13:00,
2013-01-18 11:23:00,19.0,7.0,-100.00,West,269,8.0,16.0,58,0.00,,,0.00,211.000000,,2013-01-18 16:23:00,
2013-01-18 11:53:00,20.0,4.0,-100.00,West,259,9.0,22.0,50,0.00,,,0.00,71.000000,,2013-01-18 16:53:00,
2013-01-18 12:03:00,20.0,4.0,-100.00,West,259,9.0,22.0,50,0.00,,,0.00,71.000000,,2013-01-18 17:03:00,
2013-01-18 12:13:00,20.0,4.0,-100.00,West,259,9.0,22.0,50,0.00,,,0.00,71.000000,,2013-01-18 17:13:00,
2013-01-18 12:23:00,20.0,4.0,-100.00,West,259,9.0,22.0,50,0.00,,,0.00,71.000000,,2013-01-18 17:23:00,
2013-01-18 12:53:00,22.0,5.0,-100.00,West,269,11.0,17.0,47,0.00,,,0.00,148.000000,,2013-01-18 17:53:00,
2013-01-18 13:03:00,22.0,5.0,-100.00,West,269,11.0,17.0,47,0.00,,,0.00,148.000000,,2013-01-18 18:03:00,
2013-01-18 13:13:00,22.0,5.0,-100.00,West,269,11.0,17.0,47,0.00,,,0.00,148.000000,,2013-01-18 18:13:00,
2013-01-18 13:23:00,22.0,5.0,-100.00,West,269,11.0,17.0,47,0.00,,,0.00,148.000000,,2013-01-18 18:23:00,
2013-01-18 13:53:00,24.0,5.0,-100.00,WSW,239,11.0,20.0,44,0.00,,,0.00,456.000000,,2013-01-18 18:53:00,
2013-01-18 14:03:00,24.0,5.0,-100.00,WSW,239,11.0,20.0,44,0.00,,,0.00,456.000000,,2013-01-18 19:03:00,
2013-01-18 14:13:00,24.0,5.0,-100.00,WSW,239,11.0,20.0,44,0.00,,,0.00,456.000000,,2013-01-18 19:13:00,
2013-01-18 14:23:00,24.0,5.0,-100.00,WSW,239,11.0,20.0,44,0.00,,,0.00,456.000000,,2013-01-18 19:23:00,
2013-01-18 14:53:00,24.0,7.0,-100.00,WSW,244,12.0,22.0,47,0.00,,,0.00,385.000000,,2013-01-18 19:53:00,
2013-01-18 15:03:00,24.0,7.0,-100.00,WSW,244,12.0,22.0,47,0.00,,,0.00,385.000000,,2013-01-18 20:03:00,
2013-01-18 15:13:00,24.0,7.0,-100.00,WSW,244,12.0,22.0,47,0.00,,,0.00,385.000000,,2013-01-18 20:13:00,
2013-01-18 15:23:00,24.0,7.0,-100.00,WSW,244,12.0,22.0,47,0.00,,,0.00,385.000000,,2013-01-18 20:23:00,
2013-01-18 15:53:00,24.0,10.0,-100.00,WSW,242,12.0,21.0,55,0.00,,,0.00,241.000000,,2013-01-18 20:53:00,
2013-01-18 16:03:00,24.0,10.0,-100.00,WSW,242,12.0,21.0,55,0.00,,,0.00,241.000000,,2013-01-18 21:03:00,
2013-01-18 16:13:00,24.0,10.0,-100.00,WSW,242,12.0,21.0,55,0.00,,,0.00,241.000000,,2013-01-18 21:13:00,
2013-01-18 16:23:00,24.0,10.0,-100.00,WSW,242,12.0,21.0,55,0.00,,,0.00,241.000000,,2013-01-18 21:23:00,
2013-01-18 16:53:00,25.0,13.0,-100.00,SW,235,7.0,17.0,60,0.00,,,0.00,65.000000,,2013-01-18 21:53:00,
2013-01-18 17:03:00,25.0,13.0,-100.00,SW,235,7.0,17.0,60,0.00,,,0.00,65.000000,,2013-01-18 22:03:00,
2013-01-18 17:12:00,25.0,13.0,-100.00,SW,235,7.0,17.0,60,0.00,,,0.00,65.000000,,2013-01-18 22:12:00,
2013-01-18 17:23:00,25.0,13.0,-100.00,SW,235,7.0,17.0,60,0.00,,,0.00,65.000000,,2013-01-18 22:23:00,
2013-01-18 17:53:00,24.0,12.0,-100.00,SW,215,4.0,12.0,60,0.00,,,0.00,7.000000,,2013-01-18 22:53:00,
2013-01-18 18:03:00,24.0,12.0,-100.00,SW,215,4.0,12.0,60,0.00,,,0.00,7.000000,,2013-01-18 23:03:00,
2013-01-18 18:12:00,24.0,12.0,-100.00,SW,215,4.0,12.0,60,0.00,,,0.00,7.000000,,2013-01-18 23:12:00,
2013-01-18 18:23:00,24.0,12.0,-100.00,SW,215,4.0,12.0,60,0.00,,,0.00,7.000000,,2013-01-18 23:23:00,
2013-01-18 18:53:00,24.0,11.0,-100.00,SSW,194,2.0,8.0,56,0.00,,,0.00,0.000000,,2013-01-18 23:53:00,
2013-01-18 19:03:00,24.0,11.0,-100.00,SSW,194,2.0,8.0,56,0.00,,,0.00,0.000000,,2013-01-19 00:03:00,
2013-01-18 19:13:00,24.0,11.0,-100.00,SSW,194,2.0,8.0,56,0.00,,,0.00,0.000000,,2013-01-19 00:13:00,
2013-01-18 19:23:00,24.0,11.0,-100.00,SSW,194,2.0,8.0,56,0.00,,,0.00,0.000000,,2013-01-19 00:23:00,
2013-01-18 19:53:00,24.0,10.0,-100.00,SSE,157,2.0,5.0,55,0.00,,,0.00,0.000000,,2013-01-19 00:53:00,
2013-01-18 20:03:00,24.0,10.0,-100.00,SSE,157,2.0,5.0,55,0.00,,,0.00,0.000000,,2013-01-19 01:03:00,
2013-01-18 20:12:00,24.0,10.0,-100.00,SSE,157,2.0,5.0,55,0.00,,,0.00,0.000000,,2013-01-19 01:12:00,
2013-01-18 20:23:00,24.0,10.0,-100.00,SSE,157,2.0,5.0,55,0.00,,,0.00,0.000000,,2013-01-19 01:23:00,
2013-01-18 20:53:00,25.0,10.0,-100.00,SSW,193,4.0,13.0,52,0.00,,,0.00,0.000000,,2013-01-19 01:53:00,
2013-01-18 21:03:00,25.0,10.0,-100.00,SSW,193,4.0,13.0,52,0.00,,,0.00,0.000000,,2013-01-19 02:03:00,
2013-01-18 21:12:00,25.0,10.0,-100.00,SSW,193,4.0,13.0,52,0.00,,,0.00,0.000000,,2013-01-19 02:12:00,
2013-01-18 21:23:00,25.0,10.0,-100.00,SSW,193,4.0,13.0,52,0.00,,,0.00,0.000000,,2013-01-19 02:23:00,
2013-01-18 21:53:00,28.0,10.0,-100.00,SW,221,7.0,15.0,46,0.00,,,0.00,0.000000,,2013-01-19 02:53:00,
2013-01-18 22:03:00,28.0,10.0,-100.00,SW,221,7.0,15.0,46,0.00,,,0.00,0.000000,,2013-01-19 03:03:00,
2013-01-18 22:12:00,28.0,10.0,-100.00,SW,221,7.0,15.0,46,0.00,,,0.00,0.000000,,2013-01-19 03:12:00,
2013-01-18 22:23:00,28.0,10.0,-100.00,SW,221,7.0,15.0,46,0.00,,,0.00,0.000000,,2013-01-19 03:23:00,
2013-01-18 22:53:00,31.0,13.0,-100.00,SW,235,10.0,22.0,46,0.00,,,0.00,0.000000,,2013-01-19 03:53:00,
2013-01-18 23:02:00,31.0,13.0,-100.00,SW,235,10.0,22.0,46,0.00,,,0.00,0.000000,,2013-01-19 04:02:00,
2013-01-18 23:12:00,31.0,13.0,-100.00,SW,235,10.0,22.0,46,0.00,,,0.00,0.000000,,2013-01-19 04:12:00,
2013-01-18 23:22:00,31.0,13.0,-100.00,SW,235,10.0,22.0,46,0.00,,,0.00,0.000000,,2013-01-19 04:22:00,
2013-01-18 23:53:00,33.0,14.0,-100.00,SW,222,12.0,22.0,45,0.00,,,0.00,0.000000,,2013-01-19 04:53:00,